sensor_id;sensor_type;location;lat;lon;timestamp;P1;durP1;ratioP1;P2;durP2;ratioP2
8058;SDS011;4072;42.668;23.396;2022-08-11T00:00:31;5.57;;;4.53;;
8058;SDS011;4072;42.668;23.396;2022-08-11T00:03:02;5.20;;;4.70;;
8058;SDS011;4072;42.668;23.396;2022-08-11T00:05:31;4.90;;;4.50;;
8058;SDS011;4072;42.668;23.396;2022-08-11T00:07:59;5.90;;;5.47;;
8058;SDS011;4072;42.668;23.396;2022-08-11T00:10:28;5.40;;;4.90;;
8058;SDS011;4072;42.668;23.396;2022-08-11T00:12:59;5.47;;;5.00;;
8058;SDS011;4072;42.668;23.396;2022-08-11T00:15:36;5.90;;;5.40;;
8058;SDS011;4072;42.668;23.396;2022-08-11T00:18:06;5.73;;;5.10;;
8058;SDS011;4072;42.668;23.396;2022-08-11T00:20:35;5.50;;;5.00;;
8058;SDS011;4072;42.668;23.396;2022-08-11T00:23:08;5.13;;;4.67;;
8058;SDS011;4072;42.668;23.396;2022-08-11T00:25:37;5.90;;;5.20;;
8058;SDS011;4072;42.668;23.396;2022-08-11T00:30:54;5.53;;;5.03;;
8058;SDS011;4072;42.668;23.396;2022-08-11T00:33:23;5.27;;;4.77;;
8058;SDS011;4072;42.668;23.396;2022-08-11T00:36:10;6.37;;;5.33;;
8058;SDS011;4072;42.668;23.396;2022-08-11T00:38:40;5.47;;;4.97;;
8058;SDS011;4072;42.668;23.396;2022-08-11T00:41:12;5.37;;;4.87;;
8058;SDS011;4072;42.668;23.396;2022-08-11T00:43:48;5.10;;;4.70;;
8058;SDS011;4072;42.668;23.396;2022-08-11T00:46:26;7.47;;;5.10;;
8058;SDS011;4072;42.668;23.396;2022-08-11T00:49:03;6.07;;;5.57;;
8058;SDS011;4072;42.668;23.396;2022-08-11T00:51:43;6.57;;;5.30;;
8058;SDS011;4072;42.668;23.396;2022-08-11T00:54:38;6.20;;;5.53;;
8058;SDS011;4072;42.668;23.396;2022-08-11T01:03:04;6.17;;;5.57;;
8058;SDS011;4072;42.668;23.396;2022-08-11T01:05:40;5.87;;;5.37;;
8058;SDS011;4072;42.668;23.396;2022-08-11T01:11:21;5.47;;;4.97;;
8058;SDS011;4072;42.668;23.396;2022-08-11T01:14:01;6.40;;;5.90;;
8058;SDS011;4072;42.668;23.396;2022-08-11T01:16:38;5.60;;;5.00;;
8058;SDS011;4072;42.668;23.396;2022-08-11T01:22:27;5.90;;;5.40;;
8058;SDS011;4072;42.668;23.396;2022-08-11T01:25:20;7.67;;;6.20;;
8058;SDS011;4072;42.668;23.396;2022-08-11T01:31:05;6.83;;;6.27;;
8058;SDS011;4072;42.668;23.396;2022-08-11T01:33:52;6.03;;;5.53;;
8058;SDS011;4072;42.668;23.396;2022-08-11T01:36:41;6.60;;;5.90;;
8058;SDS011;4072;42.668;23.396;2022-08-11T01:45:25;6.93;;;6.23;;
8058;SDS011;4072;42.668;23.396;2022-08-11T01:47:57;7.33;;;5.87;;
8058;SDS011;4072;42.668;23.396;2022-08-11T01:53:20;6.43;;;5.63;;
8058;SDS011;4072;42.668;23.396;2022-08-11T01:55:52;5.97;;;5.47;;
8058;SDS011;4072;42.668;23.396;2022-08-11T01:58:26;6.70;;;6.10;;
8058;SDS011;4072;42.668;23.396;2022-08-11T02:01:10;6.30;;;5.57;;
8058;SDS011;4072;42.668;23.396;2022-08-11T02:03:43;6.60;;;6.00;;
8058;SDS011;4072;42.668;23.396;2022-08-11T02:06:17;6.90;;;6.00;;
8058;SDS011;4072;42.668;23.396;2022-08-11T02:09:09;5.73;;;5.23;;
8058;SDS011;4072;42.668;23.396;2022-08-11T02:11:44;6.37;;;5.60;;
8058;SDS011;4072;42.668;23.396;2022-08-11T02:14:12;6.17;;;5.67;;
8058;SDS011;4072;42.668;23.396;2022-08-11T02:16:47;6.03;;;5.40;;
8058;SDS011;4072;42.668;23.396;2022-08-11T02:19:20;6.50;;;5.43;;
8058;SDS011;4072;42.668;23.396;2022-08-11T02:22:12;6.00;;;5.47;;
8058;SDS011;4072;42.668;23.396;2022-08-11T02:25:03;5.83;;;5.33;;
8058;SDS011;4072;42.668;23.396;2022-08-11T02:27:35;6.90;;;6.20;;
8058;SDS011;4072;42.668;23.396;2022-08-11T02:30:07;6.30;;;5.80;;
8058;SDS011;4072;42.668;23.396;2022-08-11T02:32:36;6.97;;;6.37;;
8058;SDS011;4072;42.668;23.396;2022-08-11T02:35:22;6.97;;;6.27;;
8058;SDS011;4072;42.668;23.396;2022-08-11T02:38:03;6.10;;;5.60;;
8058;SDS011;4072;42.668;23.396;2022-08-11T02:40:35;6.17;;;5.67;;
8058;SDS011;4072;42.668;23.396;2022-08-11T02:45:53;7.40;;;6.70;;
8058;SDS011;4072;42.668;23.396;2022-08-11T02:48:35;7.40;;;6.80;;
8058;SDS011;4072;42.668;23.396;2022-08-11T02:51:24;6.83;;;6.23;;
8058;SDS011;4072;42.668;23.396;2022-08-11T02:53:56;7.87;;;6.83;;
8058;SDS011;4072;42.668;23.396;2022-08-11T02:56:30;7.27;;;6.63;;
8058;SDS011;4072;42.668;23.396;2022-08-11T02:59:05;8.20;;;6.60;;
8058;SDS011;4072;42.668;23.396;2022-08-11T03:02:06;7.47;;;6.20;;
8058;SDS011;4072;42.668;23.396;2022-08-11T03:04:39;8.20;;;6.10;;
8058;SDS011;4072;42.668;23.396;2022-08-11T03:07:18;7.27;;;6.57;;
8058;SDS011;4072;42.668;23.396;2022-08-11T03:09:57;7.90;;;7.10;;
8058;SDS011;4072;42.668;23.396;2022-08-11T03:12:35;6.50;;;6.00;;
8058;SDS011;4072;42.668;23.396;2022-08-11T03:15:23;6.30;;;5.80;;
8058;SDS011;4072;42.668;23.396;2022-08-11T03:18:12;7.07;;;6.27;;
8058;SDS011;4072;42.668;23.396;2022-08-11T03:20:44;7.10;;;6.50;;
8058;SDS011;4072;42.668;23.396;2022-08-11T03:23:17;7.43;;;6.67;;
8058;SDS011;4072;42.668;23.396;2022-08-11T03:25:53;7.43;;;6.40;;
8058;SDS011;4072;42.668;23.396;2022-08-11T03:28:30;7.23;;;6.53;;
8058;SDS011;4072;42.668;23.396;2022-08-11T03:31:04;7.27;;;6.57;;
8058;SDS011;4072;42.668;23.396;2022-08-11T03:33:36;7.43;;;6.70;;
8058;SDS011;4072;42.668;23.396;2022-08-11T03:36:51;8.43;;;7.23;;
8058;SDS011;4072;42.668;23.396;2022-08-11T03:39:43;7.33;;;6.70;;
8058;SDS011;4072;42.668;23.396;2022-08-11T03:42:23;8.27;;;7.33;;
8058;SDS011;4072;42.668;23.396;2022-08-11T03:45:00;7.67;;;6.87;;
8058;SDS011;4072;42.668;23.396;2022-08-11T03:50:26;9.17;;;7.53;;
8058;SDS011;4072;42.668;23.396;2022-08-11T03:53:01;9.57;;;7.50;;
8058;SDS011;4072;42.668;23.396;2022-08-11T03:55:36;9.53;;;8.53;;
8058;SDS011;4072;42.668;23.396;2022-08-11T04:01:18;10.43;;;9.33;;
8058;SDS011;4072;42.668;23.396;2022-08-11T04:03:56;10.10;;;9.20;;
8058;SDS011;4072;42.668;23.396;2022-08-11T04:09:45;8.90;;;8.17;;
8058;SDS011;4072;42.668;23.396;2022-08-11T04:12:17;8.07;;;7.37;;
8058;SDS011;4072;42.668;23.396;2022-08-11T04:18:24;8.90;;;8.00;;
8058;SDS011;4072;42.668;23.396;2022-08-11T04:21:04;8.63;;;7.73;;
8058;SDS011;4072;42.668;23.396;2022-08-11T04:27:00;7.17;;;6.47;;
8058;SDS011;4072;42.668;23.396;2022-08-11T04:29:45;7.83;;;6.93;;
8058;SDS011;4072;42.668;23.396;2022-08-11T04:41:19;9.27;;;8.37;;
8058;SDS011;4072;42.668;23.396;2022-08-11T04:46:48;8.57;;;7.73;;
8058;SDS011;4072;42.668;23.396;2022-08-11T04:49:38;8.53;;;7.73;;
8058;SDS011;4072;42.668;23.396;2022-08-11T04:55:36;8.30;;;7.50;;
8058;SDS011;4072;42.668;23.396;2022-08-11T04:58:31;8.60;;;6.93;;
8058;SDS011;4072;42.668;23.396;2022-08-11T05:01:23;7.00;;;6.40;;
8058;SDS011;4072;42.668;23.396;2022-08-11T05:04:20;8.03;;;6.53;;
8058;SDS011;4072;42.668;23.396;2022-08-11T05:07:27;6.20;;;5.17;;
8058;SDS011;4072;42.668;23.396;2022-08-11T05:10:05;7.00;;;5.20;;
8058;SDS011;4072;42.668;23.396;2022-08-11T05:12:35;5.73;;;5.23;;
8058;SDS011;4072;42.668;23.396;2022-08-11T05:15:12;6.80;;;5.90;;
8058;SDS011;4072;42.668;23.396;2022-08-11T05:18:12;8.37;;;6.30;;
8058;SDS011;4072;42.668;23.396;2022-08-11T05:21:01;7.40;;;6.43;;
8058;SDS011;4072;42.668;23.396;2022-08-11T05:23:50;9.83;;;6.10;;
8058;SDS011;4072;42.668;23.396;2022-08-11T05:26:40;6.40;;;5.77;;
8058;SDS011;4072;42.668;23.396;2022-08-11T05:29:38;10.07;;;6.80;;
8058;SDS011;4072;42.668;23.396;2022-08-11T05:32:29;10.63;;;6.47;;
8058;SDS011;4072;42.668;23.396;2022-08-11T05:35:23;7.33;;;6.63;;
8058;SDS011;4072;42.668;23.396;2022-08-11T05:38:15;6.23;;;5.73;;
8058;SDS011;4072;42.668;23.396;2022-08-11T05:41:00;10.27;;;6.57;;
8058;SDS011;4072;42.668;23.396;2022-08-11T05:43:46;8.00;;;6.03;;
8058;SDS011;4072;42.668;23.396;2022-08-11T05:46:47;9.38;;;6.25;;
8058;SDS011;4072;42.668;23.396;2022-08-11T05:49:34;6.38;;;5.78;;
8058;SDS011;4072;42.668;23.396;2022-08-11T05:52:23;9.55;;;6.15;;
8058;SDS011;4072;42.668;23.396;2022-08-11T05:55:12;7.50;;;5.70;;
8058;SDS011;4072;42.668;23.396;2022-08-11T05:57:59;7.85;;;6.05;;
8058;SDS011;4072;42.668;23.396;2022-08-11T06:00:28;7.10;;;6.03;;
8058;SDS011;4072;42.668;23.396;2022-08-11T06:02:57;6.07;;;5.53;;
8058;SDS011;4072;42.668;23.396;2022-08-11T06:05:33;5.85;;;5.30;;
8058;SDS011;4072;42.668;23.396;2022-08-11T06:08:09;6.90;;;6.15;;
8058;SDS011;4072;42.668;23.396;2022-08-11T06:10:39;6.43;;;5.82;;
8058;SDS011;4072;42.668;23.396;2022-08-11T06:13:08;7.78;;;6.28;;
8058;SDS011;4072;42.668;23.396;2022-08-11T06:15:42;6.72;;;5.63;;
8058;SDS011;4072;42.668;23.396;2022-08-11T06:18:11;6.40;;;5.82;;
8058;SDS011;4072;42.668;23.396;2022-08-11T06:20:48;7.65;;;6.80;;
8058;SDS011;4072;42.668;23.396;2022-08-11T06:23:16;6.70;;;6.10;;
8058;SDS011;4072;42.668;23.396;2022-08-11T06:25:46;7.90;;;5.85;;
8058;SDS011;4072;42.668;23.396;2022-08-11T06:28:14;11.48;;;5.95;;
8058;SDS011;4072;42.668;23.396;2022-08-11T06:30:46;6.50;;;5.82;;
8058;SDS011;4072;42.668;23.396;2022-08-11T06:33:15;6.00;;;5.55;;
8058;SDS011;4072;42.668;23.396;2022-08-11T06:35:45;5.82;;;5.43;;
8058;SDS011;4072;42.668;23.396;2022-08-11T06:38:21;6.05;;;5.55;;
8058;SDS011;4072;42.668;23.396;2022-08-11T06:40:52;6.75;;;6.15;;
8058;SDS011;4072;42.668;23.396;2022-08-11T06:43:38;6.68;;;6.07;;
8058;SDS011;4072;42.668;23.396;2022-08-11T06:46:24;8.10;;;5.82;;
8058;SDS011;4072;42.668;23.396;2022-08-11T06:48:53;7.70;;;5.43;;
8058;SDS011;4072;42.668;23.396;2022-08-11T06:51:22;4.88;;;4.47;;
8058;SDS011;4072;42.668;23.396;2022-08-11T06:53:52;4.80;;;4.40;;
8058;SDS011;4072;42.668;23.396;2022-08-11T06:56:31;4.78;;;4.28;;
8058;SDS011;4072;42.668;23.396;2022-08-11T06:59:36;4.75;;;4.18;;
8058;SDS011;4072;42.668;23.396;2022-08-11T07:02:26;6.80;;;5.00;;
8058;SDS011;4072;42.668;23.396;2022-08-11T07:04:58;4.93;;;4.53;;
8058;SDS011;4072;42.668;23.396;2022-08-11T07:07:36;5.35;;;4.65;;
8058;SDS011;4072;42.668;23.396;2022-08-11T07:10:48;5.47;;;4.43;;
8058;SDS011;4072;42.668;23.396;2022-08-11T07:13:38;5.35;;;4.50;;
8058;SDS011;4072;42.668;23.396;2022-08-11T07:16:25;6.30;;;5.05;;
8058;SDS011;4072;42.668;23.396;2022-08-11T07:18:54;5.53;;;4.82;;
8058;SDS011;4072;42.668;23.396;2022-08-11T07:21:42;4.55;;;4.22;;
8058;SDS011;4072;42.668;23.396;2022-08-11T07:24:31;5.90;;;4.30;;
8058;SDS011;4072;42.668;23.396;2022-08-11T07:27:29;6.40;;;4.85;;
8058;SDS011;4072;42.668;23.396;2022-08-11T07:30:15;4.72;;;4.38;;
8058;SDS011;4072;42.668;23.396;2022-08-11T07:32:46;4.60;;;4.20;;
8058;SDS011;4072;42.668;23.396;2022-08-11T07:35:17;5.53;;;4.30;;
8058;SDS011;4072;42.668;23.396;2022-08-11T07:37:47;4.03;;;3.58;;
8058;SDS011;4072;42.668;23.396;2022-08-11T07:40:27;3.83;;;3.50;;
8058;SDS011;4072;42.668;23.396;2022-08-11T07:42:57;3.88;;;3.58;;
8058;SDS011;4072;42.668;23.396;2022-08-11T07:45:28;4.75;;;4.35;;
8058;SDS011;4072;42.668;23.396;2022-08-11T07:48:14;5.60;;;4.57;;
8058;SDS011;4072;42.668;23.396;2022-08-11T07:51:02;4.65;;;4.20;;
8058;SDS011;4072;42.668;23.396;2022-08-11T07:53:48;4.40;;;4.00;;
8058;SDS011;4072;42.668;23.396;2022-08-11T07:56:38;4.03;;;3.72;;
8058;SDS011;4072;42.668;23.396;2022-08-11T07:59:27;3.85;;;3.55;;
8058;SDS011;4072;42.668;23.396;2022-08-11T08:02:30;4.55;;;3.80;;
8058;SDS011;4072;42.668;23.396;2022-08-11T08:05:15;3.78;;;3.47;;
8058;SDS011;4072;42.668;23.396;2022-08-11T08:08:01;4.07;;;3.78;;
8058;SDS011;4072;42.668;23.396;2022-08-11T08:10:48;3.58;;;3.25;;
8058;SDS011;4072;42.668;23.396;2022-08-11T08:13:34;6.75;;;3.88;;
8058;SDS011;4072;42.668;23.396;2022-08-11T08:16:21;3.78;;;3.47;;
8058;SDS011;4072;42.668;23.396;2022-08-11T08:19:06;4.18;;;3.88;;
8058;SDS011;4072;42.668;23.396;2022-08-11T08:21:37;4.30;;;3.90;;
8058;SDS011;4072;42.668;23.396;2022-08-11T08:24:10;3.55;;;3.35;;
8058;SDS011;4072;42.668;23.396;2022-08-11T08:26:39;3.97;;;3.65;;
8058;SDS011;4072;42.668;23.396;2022-08-11T08:29:26;3.95;;;3.65;;
8058;SDS011;4072;42.668;23.396;2022-08-11T08:32:13;4.88;;;4.57;;
8058;SDS011;4072;42.668;23.396;2022-08-11T08:34:43;4.88;;;4.20;;
8058;SDS011;4072;42.668;23.396;2022-08-11T08:37:11;3.65;;;3.35;;
8058;SDS011;4072;42.668;23.396;2022-08-11T08:40:01;4.30;;;3.90;;
8058;SDS011;4072;42.668;23.396;2022-08-11T08:42:30;3.65;;;3.35;;
8058;SDS011;4072;42.668;23.396;2022-08-11T08:45:03;4.15;;;3.85;;
8058;SDS011;4072;42.668;23.396;2022-08-11T08:47:35;3.92;;;3.63;;
8058;SDS011;4072;42.668;23.396;2022-08-11T08:50:09;3.72;;;3.40;;
8058;SDS011;4072;42.668;23.396;2022-08-11T08:52:43;4.40;;;3.72;;
8058;SDS011;4072;42.668;23.396;2022-08-11T08:55:15;3.60;;;3.30;;
8058;SDS011;4072;42.668;23.396;2022-08-11T08:57:44;4.43;;;4.05;;
8058;SDS011;4072;42.668;23.396;2022-08-11T09:00:13;4.82;;;3.72;;
8058;SDS011;4072;42.668;23.396;2022-08-11T09:02:49;6.38;;;3.85;;
8058;SDS011;4072;42.668;23.396;2022-08-11T09:05:18;5.82;;;4.00;;
8058;SDS011;4072;42.668;23.396;2022-08-11T09:07:49;5.75;;;4.00;;
8058;SDS011;4072;42.668;23.396;2022-08-11T09:10:18;4.28;;;3.97;;
8058;SDS011;4072;42.668;23.396;2022-08-11T09:12:46;4.22;;;3.83;;
8058;SDS011;4072;42.668;23.396;2022-08-11T09:15:15;4.65;;;4.25;;
8058;SDS011;4072;42.668;23.396;2022-08-11T09:17:46;7.50;;;6.82;;
8058;SDS011;4072;42.668;23.396;2022-08-11T09:20:17;5.70;;;4.60;;
8058;SDS011;4072;42.668;23.396;2022-08-11T09:22:46;3.92;;;3.63;;
8058;SDS011;4072;42.668;23.396;2022-08-11T09:25:52;4.45;;;3.85;;
8058;SDS011;4072;42.668;23.396;2022-08-11T09:28:35;4.30;;;3.90;;
8058;SDS011;4072;42.668;23.396;2022-08-11T09:31:04;4.07;;;3.78;;
8058;SDS011;4072;42.668;23.396;2022-08-11T09:33:33;3.83;;;3.45;;
8058;SDS011;4072;42.668;23.396;2022-08-11T09:36:03;4.50;;;4.10;;
8058;SDS011;4072;42.668;23.396;2022-08-11T09:38:53;4.00;;;3.67;;
8058;SDS011;4072;42.668;23.396;2022-08-11T09:41:39;4.07;;;3.60;;
8058;SDS011;4072;42.668;23.396;2022-08-11T09:44:28;5.45;;;4.15;;
8058;SDS011;4072;42.668;23.396;2022-08-11T09:47:16;3.83;;;3.35;;
8058;SDS011;4072;42.668;23.396;2022-08-11T09:49:44;3.90;;;3.60;;
8058;SDS011;4072;42.668;23.396;2022-08-11T09:52:15;3.78;;;3.47;;
8058;SDS011;4072;42.668;23.396;2022-08-11T09:54:46;7.45;;;4.15;;
8058;SDS011;4072;42.668;23.396;2022-08-11T09:57:17;3.88;;;3.58;;
8058;SDS011;4072;42.668;23.396;2022-08-11T10:00:14;4.15;;;3.75;;
8058;SDS011;4072;42.668;23.396;2022-08-11T10:02:45;5.28;;;4.20;;
8058;SDS011;4072;42.668;23.396;2022-08-11T10:05:14;4.68;;;4.28;;
8058;SDS011;4072;42.668;23.396;2022-08-11T10:08:01;5.00;;;3.33;;
8058;SDS011;4072;42.668;23.396;2022-08-11T10:10:29;4.03;;;3.72;;
8058;SDS011;4072;42.668;23.396;2022-08-11T10:13:01;8.55;;;4.75;;
8058;SDS011;4072;42.668;23.396;2022-08-11T10:15:52;6.60;;;4.28;;
8058;SDS011;4072;42.668;23.396;2022-08-11T10:18:29;4.82;;;4.40;;
8058;SDS011;4072;42.668;23.396;2022-08-11T10:21:23;7.15;;;4.60;;
8058;SDS011;4072;42.668;23.396;2022-08-11T10:23:57;5.38;;;4.88;;
8058;SDS011;4072;42.668;23.396;2022-08-11T10:26:43;5.32;;;4.68;;
8058;SDS011;4072;42.668;23.396;2022-08-11T10:29:22;5.28;;;4.78;;
8058;SDS011;4072;42.668;23.396;2022-08-11T10:32:18;4.80;;;4.40;;
8058;SDS011;4072;42.668;23.396;2022-08-11T10:35:25;5.07;;;4.68;;
8058;SDS011;4072;42.668;23.396;2022-08-11T10:37:53;4.43;;;4.10;;
8058;SDS011;4072;42.668;23.396;2022-08-11T10:40:37;5.45;;;4.75;;
8058;SDS011;4072;42.668;23.396;2022-08-11T10:43:05;5.13;;;4.72;;
8058;SDS011;4072;42.668;23.396;2022-08-11T10:45:37;4.43;;;4.03;;
8058;SDS011;4072;42.668;23.396;2022-08-11T10:48:23;4.50;;;4.00;;
8058;SDS011;4072;42.668;23.396;2022-08-11T10:50:51;4.18;;;3.88;;
8058;SDS011;4072;42.668;23.396;2022-08-11T10:53:38;6.20;;;4.38;;
8058;SDS011;4072;42.668;23.396;2022-08-11T10:56:25;3.83;;;3.53;;
8058;SDS011;4072;42.668;23.396;2022-08-11T10:59:11;4.47;;;4.03;;
8058;SDS011;4072;42.668;23.396;2022-08-11T11:01:43;4.65;;;4.07;;
8058;SDS011;4072;42.668;23.396;2022-08-11T11:04:12;4.13;;;3.83;;
8058;SDS011;4072;42.668;23.396;2022-08-11T11:06:49;4.35;;;3.95;;
8058;SDS011;4072;42.668;23.396;2022-08-11T11:09:18;4.13;;;3.72;;
8058;SDS011;4072;42.668;23.396;2022-08-11T11:11:51;5.07;;;4.57;;
8058;SDS011;4072;42.668;23.396;2022-08-11T11:14:39;4.85;;;3.85;;
8058;SDS011;4072;42.668;23.396;2022-08-11T11:17:27;4.70;;;4.30;;
8058;SDS011;4072;42.668;23.396;2022-08-11T11:20:14;5.72;;;4.80;;
8058;SDS011;4072;42.668;23.396;2022-08-11T11:23:04;5.65;;;4.53;;
8058;SDS011;4072;42.668;23.396;2022-08-11T11:25:36;5.30;;;4.80;;
8058;SDS011;4072;42.668;23.396;2022-08-11T11:28:13;5.10;;;4.60;;
8058;SDS011;4072;42.668;23.396;2022-08-11T11:30:49;4.95;;;4.10;;
8058;SDS011;4072;42.668;23.396;2022-08-11T11:33:25;5.05;;;4.65;;
8058;SDS011;4072;42.668;23.396;2022-08-11T11:35:59;3.90;;;3.60;;
8058;SDS011;4072;42.668;23.396;2022-08-11T11:38:32;3.92;;;3.53;;
8058;SDS011;4072;42.668;23.396;2022-08-11T11:41:00;4.03;;;3.72;;
8058;SDS011;4072;42.668;23.396;2022-08-11T11:43:47;4.50;;;3.40;;
8058;SDS011;4072;42.668;23.396;2022-08-11T11:46:15;5.63;;;3.53;;
8058;SDS011;4072;42.668;23.396;2022-08-11T11:48:44;5.70;;;3.75;;
8058;SDS011;4072;42.668;23.396;2022-08-11T11:51:12;4.43;;;3.25;;
8058;SDS011;4072;42.668;23.396;2022-08-11T11:53:41;4.25;;;2.85;;
8058;SDS011;4072;42.668;23.396;2022-08-11T11:56:10;6.07;;;3.83;;
8058;SDS011;4072;42.668;23.396;2022-08-11T11:58:39;10.10;;;4.20;;
8058;SDS011;4072;42.668;23.396;2022-08-11T12:01:26;4.97;;;3.15;;
8058;SDS011;4072;42.668;23.396;2022-08-11T12:03:54;4.78;;;3.85;;
8058;SDS011;4072;42.668;23.396;2022-08-11T12:06:23;3.63;;;3.33;;
8058;SDS011;4072;42.668;23.396;2022-08-11T12:08:53;4.13;;;3.53;;
8058;SDS011;4072;42.668;23.396;2022-08-11T12:11:22;6.40;;;2.97;;
8058;SDS011;4072;42.668;23.396;2022-08-11T12:14:09;4.07;;;3.53;;
8058;SDS011;4072;42.668;23.396;2022-08-11T12:16:40;5.20;;;3.63;;
8058;SDS011;4072;42.668;23.396;2022-08-11T12:19:09;5.43;;;3.92;;
8058;SDS011;4072;42.668;23.396;2022-08-11T12:21:38;4.68;;;3.35;;
8058;SDS011;4072;42.668;23.396;2022-08-11T12:24:28;3.58;;;3.20;;
8058;SDS011;4072;42.668;23.396;2022-08-11T12:27:14;6.72;;;4.63;;
8058;SDS011;4072;42.668;23.396;2022-08-11T12:29:52;6.03;;;3.85;;
8058;SDS011;4072;42.668;23.396;2022-08-11T12:32:23;3.60;;;3.30;;
8058;SDS011;4072;42.668;23.396;2022-08-11T12:34:52;4.80;;;3.70;;
8058;SDS011;4072;42.668;23.396;2022-08-11T12:37:26;3.92;;;3.58;;
8058;SDS011;4072;42.668;23.396;2022-08-11T12:39:58;4.47;;;3.92;;
8058;SDS011;4072;42.668;23.396;2022-08-11T12:43:06;4.25;;;3.80;;
8058;SDS011;4072;42.668;23.396;2022-08-11T12:46:06;4.63;;;3.53;;
8058;SDS011;4072;42.668;23.396;2022-08-11T12:48:42;5.80;;;4.30;;
8058;SDS011;4072;42.668;23.396;2022-08-11T12:51:31;5.15;;;3.60;;
8058;SDS011;4072;42.668;23.396;2022-08-11T12:54:39;3.60;;;3.30;;
8058;SDS011;4072;42.668;23.396;2022-08-11T12:57:11;5.90;;;3.53;;
8058;SDS011;4072;42.668;23.396;2022-08-11T13:00:12;4.00;;;3.70;;
8058;SDS011;4072;42.668;23.396;2022-08-11T13:02:58;5.00;;;3.45;;
8058;SDS011;4072;42.668;23.396;2022-08-11T13:05:46;3.67;;;3.28;;
8058;SDS011;4072;42.668;23.396;2022-08-11T13:08:15;6.72;;;3.42;;
8058;SDS011;4072;42.668;23.396;2022-08-11T13:10:43;4.80;;;3.45;;
8058;SDS011;4072;42.668;23.396;2022-08-11T13:13:29;3.47;;;3.17;;
8058;SDS011;4072;42.668;23.396;2022-08-11T13:16:18;3.42;;;3.13;;
8058;SDS011;4072;42.668;23.396;2022-08-11T13:18:47;4.43;;;3.38;;
8058;SDS011;4072;42.668;23.396;2022-08-11T13:21:20;7.10;;;3.88;;
8058;SDS011;4072;42.668;23.396;2022-08-11T13:23:49;4.30;;;2.80;;
8058;SDS011;4072;42.668;23.396;2022-08-11T13:26:27;4.90;;;3.58;;
8058;SDS011;4072;42.668;23.396;2022-08-11T13:29:18;3.60;;;3.30;;
8058;SDS011;4072;42.668;23.396;2022-08-11T13:31:47;3.65;;;3.35;;
8058;SDS011;4072;42.668;23.396;2022-08-11T13:34:15;4.20;;;3.33;;
8058;SDS011;4072;42.668;23.396;2022-08-11T13:36:46;3.10;;;2.90;;
8058;SDS011;4072;42.668;23.396;2022-08-11T13:39:14;2.85;;;2.65;;
8058;SDS011;4072;42.668;23.396;2022-08-11T13:41:43;3.08;;;2.88;;
8058;SDS011;4072;42.668;23.396;2022-08-11T13:44:13;3.53;;;3.22;;
8058;SDS011;4072;42.668;23.396;2022-08-11T13:46:50;5.43;;;2.97;;
8058;SDS011;4072;42.668;23.396;2022-08-11T13:49:19;3.05;;;2.85;;
8058;SDS011;4072;42.668;23.396;2022-08-11T13:51:49;3.00;;;2.80;;
8058;SDS011;4072;42.668;23.396;2022-08-11T13:54:19;2.78;;;2.55;;
8058;SDS011;4072;42.668;23.396;2022-08-11T13:56:50;2.83;;;2.63;;
8058;SDS011;4072;42.668;23.396;2022-08-11T13:59:19;3.28;;;3.08;;
8058;SDS011;4072;42.668;23.396;2022-08-11T14:01:55;2.85;;;2.47;;
8058;SDS011;4072;42.668;23.396;2022-08-11T14:04:47;3.63;;;3.03;;
8058;SDS011;4072;42.668;23.396;2022-08-11T14:07:19;3.38;;;2.45;;
8058;SDS011;4072;42.668;23.396;2022-08-11T14:09:51;3.33;;;3.03;;
8058;SDS011;4072;42.668;23.396;2022-08-11T14:12:22;3.17;;;2.92;;
8058;SDS011;4072;42.668;23.396;2022-08-11T14:15:09;3.17;;;2.85;;
8058;SDS011;4072;42.668;23.396;2022-08-11T14:17:46;2.72;;;2.53;;
8058;SDS011;4072;42.668;23.396;2022-08-11T14:20:17;2.92;;;2.63;;
8058;SDS011;4072;42.668;23.396;2022-08-11T14:23:06;3.03;;;2.83;;
8058;SDS011;4072;42.668;23.396;2022-08-11T14:25:33;2.85;;;2.65;;
8058;SDS011;4072;42.668;23.396;2022-08-11T14:28:22;2.80;;;2.60;;
8058;SDS011;4072;42.668;23.396;2022-08-11T14:31:01;3.33;;;3.03;;
8058;SDS011;4072;42.668;23.396;2022-08-11T14:33:30;2.90;;;2.70;;
8058;SDS011;4072;42.668;23.396;2022-08-11T14:36:19;2.78;;;2.58;;
8058;SDS011;4072;42.668;23.396;2022-08-11T14:38:49;2.80;;;2.60;;
8058;SDS011;4072;42.668;23.396;2022-08-11T14:41:19;3.95;;;3.30;;
8058;SDS011;4072;42.668;23.396;2022-08-11T14:44:24;3.65;;;2.83;;
8058;SDS011;4072;42.668;23.396;2022-08-11T14:47:09;4.68;;;3.80;;
8058;SDS011;4072;42.668;23.396;2022-08-11T14:49:50;7.75;;;3.45;;
8058;SDS011;4072;42.668;23.396;2022-08-11T14:52:36;3.80;;;3.50;;
8058;SDS011;4072;42.668;23.396;2022-08-11T14:55:07;3.53;;;3.22;;
8058;SDS011;4072;42.668;23.396;2022-08-11T14:57:52;3.85;;;3.10;;
8058;SDS011;4072;42.668;23.396;2022-08-11T15:00:22;3.90;;;3.40;;
8058;SDS011;4072;42.668;23.396;2022-08-11T15:02:52;3.45;;;3.25;;
8058;SDS011;4072;42.668;23.396;2022-08-11T15:05:40;4.07;;;3.70;;
8058;SDS011;4072;42.668;23.396;2022-08-11T15:08:24;3.92;;;3.60;;
8058;SDS011;4072;42.668;23.396;2022-08-11T15:11:08;4.22;;;3.83;;
8058;SDS011;4072;42.668;23.396;2022-08-11T15:13:58;5.00;;;3.50;;
8058;SDS011;4072;42.668;23.396;2022-08-11T15:16:34;3.45;;;3.13;;
8058;SDS011;4072;42.668;23.396;2022-08-11T15:19:20;4.20;;;3.28;;
8058;SDS011;4072;42.668;23.396;2022-08-11T15:21:48;3.83;;;3.53;;
8058;SDS011;4072;42.668;23.396;2022-08-11T15:24:34;3.75;;;3.33;;
8058;SDS011;4072;42.668;23.396;2022-08-11T15:27:06;2.83;;;2.63;;
8058;SDS011;4072;42.668;23.396;2022-08-11T15:29:52;3.33;;;3.05;;
8058;SDS011;4072;42.668;23.396;2022-08-11T15:32:58;3.30;;;3.10;;
8058;SDS011;4072;42.668;23.396;2022-08-11T15:35:44;3.50;;;3.15;;
8058;SDS011;4072;42.668;23.396;2022-08-11T15:38:30;3.65;;;3.38;;
8058;SDS011;4072;42.668;23.396;2022-08-11T15:41:01;3.47;;;3.17;;
8058;SDS011;4072;42.668;23.396;2022-08-11T15:43:50;3.53;;;3.22;;
8058;SDS011;4072;42.668;23.396;2022-08-11T15:46:38;3.95;;;3.40;;
8058;SDS011;4072;42.668;23.396;2022-08-11T15:49:08;3.78;;;3.47;;
8058;SDS011;4072;42.668;23.396;2022-08-11T15:51:40;3.17;;;2.97;;
8058;SDS011;4072;42.668;23.396;2022-08-11T15:54:09;4.57;;;3.33;;
8058;SDS011;4072;42.668;23.396;2022-08-11T15:56:39;3.80;;;2.95;;
8058;SDS011;4072;42.668;23.396;2022-08-11T15:59:10;5.53;;;3.20;;
8058;SDS011;4072;42.668;23.396;2022-08-11T16:02:09;4.43;;;2.88;;
8058;SDS011;4072;42.668;23.396;2022-08-11T16:04:52;3.65;;;2.67;;
8058;SDS011;4072;42.668;23.396;2022-08-11T16:07:21;3.10;;;2.90;;
8058;SDS011;4072;42.668;23.396;2022-08-11T16:09:55;3.13;;;2.75;;
8058;SDS011;4072;42.668;23.396;2022-08-11T16:12:27;4.53;;;3.25;;
8058;SDS011;4072;42.668;23.396;2022-08-11T16:14:57;2.97;;;2.63;;
8058;SDS011;4072;42.668;23.396;2022-08-11T16:17:47;3.10;;;2.80;;
8058;SDS011;4072;42.668;23.396;2022-08-11T16:20:18;3.40;;;3.20;;
8058;SDS011;4072;42.668;23.396;2022-08-11T16:22:47;6.93;;;3.95;;
8058;SDS011;4072;42.668;23.396;2022-08-11T16:25:28;7.70;;;5.70;;
8058;SDS011;4072;42.668;23.396;2022-08-11T16:28:16;5.70;;;3.38;;
8058;SDS011;4072;42.668;23.396;2022-08-11T16:30:47;5.32;;;4.25;;
8058;SDS011;4072;42.668;23.396;2022-08-11T16:33:16;6.45;;;4.68;;
8058;SDS011;4072;42.668;23.396;2022-08-11T16:36:05;4.95;;;4.55;;
8058;SDS011;4072;42.668;23.396;2022-08-11T16:38:51;4.20;;;3.50;;
8058;SDS011;4072;42.668;23.396;2022-08-11T16:41:21;5.10;;;3.72;;
8058;SDS011;4072;42.668;23.396;2022-08-11T16:44:03;4.97;;;3.42;;
8058;SDS011;4072;42.668;23.396;2022-08-11T16:47:09;5.38;;;3.88;;
8058;SDS011;4072;42.668;23.396;2022-08-11T16:49:38;4.25;;;3.70;;
8058;SDS011;4072;42.668;23.396;2022-08-11T16:52:16;3.90;;;3.60;;
8058;SDS011;4072;42.668;23.396;2022-08-11T16:54:44;4.55;;;3.88;;
8058;SDS011;4072;42.668;23.396;2022-08-11T16:57:14;5.85;;;3.95;;
8058;SDS011;4072;42.668;23.396;2022-08-11T17:00:00;4.18;;;3.88;;
8058;SDS011;4072;42.668;23.396;2022-08-11T17:02:34;3.85;;;3.45;;
8058;SDS011;4072;42.668;23.396;2022-08-11T17:05:22;3.63;;;3.33;;
8058;SDS011;4072;42.668;23.396;2022-08-11T17:08:20;4.70;;;3.10;;
8058;SDS011;4072;42.668;23.396;2022-08-11T17:11:24;3.67;;;3.10;;